Time;durP1;ratioP1;P1;durP2;ratioP2;P2;SDS_P1;SDS_P2;PMS_P1;PMS_P2;Temp;Humidity;BMP_temperature;BMP_pressure;BME280_temperature;BME280_humidity;BME280_pressure;Samples;Min_cycle;Max_cycle;Signal;HPM_P1;HPM_P2
2021/09/04 00:00:19;;;;;;;12.50;9.18;;;15.10;25.50;;;;;;5082394;28;20039;-72
2021/09/04 00:02:47;;;;;;;12.55;8.68;;;15.00;25.90;;;;;;5059177;28;20040;-72
2021/09/04 00:05:16;;;;;;;14.18;9.18;;;14.90;26.80;;;;;;5082063;28;20060;-73
2021/09/04 00:07:49;;;;;;;11.73;8.93;;;14.90;27.80;;;;;;5076437;28;20407;-72
2021/09/04 00:10:23;;;;;;;13.35;9.00;;;14.90;28.30;;;;;;5081478;28;20101;-72
2021/09/04 00:12:51;;;;;;;15.70;10.30;;;14.80;28.50;;;;;;5082243;28;20059;-72
2021/09/04 00:15:20;;;;;;;17.92;9.63;;;14.80;28.60;;;;;;5078819;28;20119;-71
2021/09/04 00:17:51;;;;;;;12.43;8.77;;;14.70;29.30;;;;;;5082336;28;20121;-72
2021/09/04 00:20:19;;;;;;;14.10;9.05;;;14.60;30.00;;;;;;5060378;28;20051;-72
2021/09/04 00:22:47;;;;;;;9.95;8.32;;;14.50;31.10;;;;;;5080474;28;20556;-71
2021/09/04 00:25:16;;;;;;;14.02;9.13;;;14.40;32.30;;;;;;5075550;28;20040;-73
2021/09/04 00:27:44;;;;;;;14.68;8.95;;;14.40;33.20;;;;;;5079349;28;20051;-72
2021/09/04 00:30:14;;;;;;;14.32;9.40;;;14.30;33.80;;;;;;5077354;28;20047;-72
2021/09/04 00:32:44;;;;;;;11.65;9.38;;;14.20;35.50;;;;;;5066626;28;20051;-72
2021/09/04 00:35:12;;;;;;;13.75;9.05;;;14.20;35.40;;;;;;5078401;28;20141;-71
2021/09/04 00:37:41;;;;;;;13.90;8.57;;;14.20;35.30;;;;;;5075689;28;20547;-71
2021/09/04 00:40:10;;;;;;;13.25;9.45;;;14.10;36.20;;;;;;5078498;28;20125;-72
2021/09/04 00:42:38;;;;;;;13.25;9.18;;;14.10;36.60;;;;;;5078838;28;20055;-72
2021/09/04 00:45:07;;;;;;;14.20;9.40;;;14.10;37.00;;;;;;5080710;28;20040;-72
2021/09/04 00:47:36;;;;;;;12.80;10.25;;;14.10;37.20;;;;;;5075763;28;20118;-72
2021/09/04 00:50:06;;;;;;;16.88;11.38;;;14.10;38.50;;;;;;5077809;28;20543;-72
2021/09/04 00:52:35;;;;;;;16.50;10.93;;;14.20;39.00;;;;;;5063378;28;20068;-72
2021/09/04 00:55:03;;;;;;;18.85;11.38;;;14.30;38.10;;;;;;5080240;28;20052;-72
2021/09/04 00:57:31;;;;;;;14.35;11.27;;;14.30;37.30;;;;;;5078268;28;20043;-72
2021/09/04 01:00:00;;;;;;;16.90;11.00;;;14.30;36.90;;;;;;5079947;28;20047;-72
2021/09/04 01:02:30;;;;;;;17.83;12.32;;;14.30;36.50;;;;;;5080128;28;20048;-72
2021/09/04 01:05:02;;;;;;;15.65;11.23;;;14.20;36.60;;;;;;5079658;28;20076;-72
2021/09/04 01:07:38;;;;;;;14.18;10.57;;;14.20;36.50;;;;;;5075059;28;20044;-74
2021/09/04 01:10:08;;;;;;;16.23;11.23;;;14.10;37.10;;;;;;5064003;28;20121;-71
2021/09/04 01:12:36;;;;;;;15.27;11.38;;;14.10;37.30;;;;;;5083266;28;20564;-71
2021/09/04 01:15:08;;;;;;;15.65;11.25;;;14.00;38.50;;;;;;5084650;28;20131;-71
2021/09/04 01:17:37;;;;;;;14.48;11.52;;;14.00;38.60;;;;;;5082991;28;20674;-73
2021/09/04 01:20:06;;;;;;;17.05;11.93;;;14.00;39.00;;;;;;5063689;28;20040;-72
2021/09/04 01:22:36;;;;;;;16.65;12.25;;;14.00;38.90;;;;;;5085324;28;20721;-71
2021/09/04 01:25:07;;;;;;;16.85;12.20;;;13.90;39.30;;;;;;5084369;28;20461;-71
2021/09/04 01:27:39;;;;;;;17.85;11.68;;;13.90;39.20;;;;;;5082001;28;20044;-71
2021/09/04 01:30:09;;;;;;;17.13;11.95;;;13.80;40.10;;;;;;5081069;28;20056;-71
2021/09/04 01:32:37;;;;;;;16.95;12.25;;;13.70;40.30;;;;;;5088988;28;20052;-72
2021/09/04 01:35:07;;;;;;;18.77;11.60;;;13.70;40.80;;;;;;5082891;28;20532;-71
2021/09/04 01:37:35;;;;;;;18.40;11.40;;;13.60;41.40;;;;;;5081986;28;20048;-70
2021/09/04 01:40:03;;;;;;;15.73;11.98;;;13.60;42.30;;;;;;5082422;28;20044;-71
2021/09/04 01:42:31;;;;;;;13.48;10.82;;;13.50;43.60;;;;;;5083536;28;20102;-71
2021/09/04 01:45:01;;;;;;;16.42;11.48;;;13.50;43.00;;;;;;5084795;28;20055;-72
2021/09/04 01:47:32;;;;;;;15.55;11.80;;;13.50;42.80;;;;;;5077591;28;20050;-71
2021/09/04 01:50:02;;;;;;;19.20;12.32;;;13.50;42.70;;;;;;5084261;28;20048;-71
2021/09/04 01:52:30;;;;;;;14.93;11.63;;;13.50;43.00;;;;;;5068466;28;20503;-71
2021/09/04 01:54:58;;;;;;;18.20;12.32;;;13.50;43.50;;;;;;5079359;28;20101;-72
2021/09/04 01:57:26;;;;;;;15.73;11.98;;;13.50;43.90;;;;;;5082499;28;20063;-72
2021/09/04 01:59:54;;;;;;;16.30;12.38;;;13.50;44.10;;;;;;5084635;28;20052;-72
2021/09/04 02:02:23;;;;;;;16.45;12.40;;;13.50;44.40;;;;;;5082882;28;20439;-71
2021/09/04 02:04:52;;;;;;;16.25;11.93;;;13.50;44.90;;;;;;5065212;28;20044;-71
2021/09/04 02:07:20;;;;;;;21.42;13.10;;;13.50;44.80;;;;;;5074993;28;20479;-73
2021/09/04 02:09:48;;;;;;;18.73;12.43;;;13.50;44.90;;;;;;5068259;28;20049;-71
2021/09/04 02:12:16;;;;;;;16.25;12.23;;;13.60;44.60;;;;;;5084131;28;20044;-71
2021/09/04 02:14:44;;;;;;;16.75;12.95;;;13.50;44.60;;;;;;5085219;28;20056;-72
2021/09/04 02:17:13;;;;;;;18.48;12.88;;;13.50;44.70;;;;;;5076179;28;20032;-72
2021/09/04 02:19:45;;;;;;;19.85;13.55;;;13.50;45.30;;;;;;5083597;28;20093;-72
2021/09/04 02:22:14;;;;;;;18.13;13.30;;;13.50;45.30;;;;;;5064793;28;20048;-72
2021/09/04 02:24:42;;;;;;;19.00;13.00;;;13.50;45.10;;;;;;5079244;28;20056;-72
2021/09/04 02:27:10;;;;;;;22.17;13.27;;;13.40;45.40;;;;;;5078469;28;20094;-72
2021/09/04 02:29:38;;;;;;;17.77;12.45;;;13.50;45.40;;;;;;5080395;28;20052;-72
2021/09/04 02:32:07;;;;;;;20.30;13.43;;;13.50;45.50;;;;;;5083206;28;20051;-71
2021/09/04 02:34:35;;;;;;;19.67;13.07;;;13.50;45.00;;;;;;5063654;28;20480;-71
2021/09/04 02:37:04;;;;;;;17.95;11.98;;;13.40;45.00;;;;;;5079322;28;20801;-72
2021/09/04 02:39:32;;;;;;;20.77;12.68;;;13.40;44.50;;;;;;5077365;28;20051;-72
2021/09/04 02:42:00;;;;;;;16.00;11.55;;;13.30;44.90;;;;;;5066992;28;20135;-72
2021/09/04 02:44:29;;;;;;;16.40;12.25;;;13.20;45.30;;;;;;5044225;28;20408;-71
2021/09/04 02:46:57;;;;;;;16.67;12.10;;;13.30;46.30;;;;;;5057921;28;20044;-72
2021/09/04 02:49:27;;;;;;;14.63;11.93;;;13.30;46.20;;;;;;5062809;28;20060;-71
2021/09/04 02:51:55;;;;;;;17.17;12.40;;;13.30;46.00;;;;;;5070265;28;20051;-71
2021/09/04 02:54:25;;;;;;;18.67;12.88;;;13.30;46.10;;;;;;5084667;28;20059;-72
2021/09/04 02:56:53;;;;;;;15.93;12.70;;;13.30;45.80;;;;;;5080310;28;20043;-72
2021/09/04 02:59:21;;;;;;;18.63;12.68;;;13.20;45.30;;;;;;5081697;28;20090;-72
2021/09/04 03:01:51;;;;;;;20.40;12.32;;;13.30;45.30;;;;;;5080573;28;20048;-72
2021/09/04 03:04:20;;;;;;;18.15;13.02;;;13.20;45.00;;;;;;5082443;28;20040;-72
2021/09/04 03:06:48;;;;;;;18.17;12.32;;;13.10;45.60;;;;;;5078057;28;20060;-70
2021/09/04 03:09:16;;;;;;;17.05;12.90;;;13.10;46.70;;;;;;5081265;28;20048;-71
2021/09/04 03:11:45;;;;;;;17.92;12.95;;;13.10;46.80;;;;;;5082218;28;20048;-71
2021/09/04 03:14:13;;;;;;;19.35;13.70;;;13.00;47.00;;;;;;5081841;28;20055;-71
2021/09/04 03:16:42;;;;;;;18.63;14.07;;;13.00;47.40;;;;;;5053054;28;20649;-71
2021/09/04 03:19:10;;;;;;;18.60;13.27;;;13.00;48.00;;;;;;5083006;28;20743;-72
2021/09/04 03:21:38;;;;;;;18.08;13.02;;;12.90;48.10;;;;;;5084682;28;20047;-71
2021/09/04 03:24:06;;;;;;;19.73;13.68;;;12.90;49.10;;;;;;5082131;28;20052;-71
2021/09/04 03:26:34;;;;;;;18.45;13.52;;;12.90;50.50;;;;;;5078382;28;20048;-71
2021/09/04 03:29:03;;;;;;;17.67;13.50;;;12.90;50.40;;;;;;5084267;28;20102;-71
2021/09/04 03:31:31;;;;;;;18.20;13.45;;;12.90;51.20;;;;;;5081480;28;20499;-71
2021/09/04 03:33:59;;;;;;;18.02;13.23;;;12.90;50.60;;;;;;5083671;28;20054;-71
2021/09/04 03:36:27;;;;;;;17.95;12.93;;;12.90;50.20;;;;;;5074651;28;20052;-71
2021/09/04 03:38:55;;;;;;;22.80;14.07;;;12.90;50.10;;;;;;5076158;28;20052;-72
2021/09/04 03:41:24;;;;;;;19.23;12.80;;;12.90;49.70;;;;;;5082420;28;20071;-72
2021/09/04 03:43:52;;;;;;;17.63;12.68;;;12.90;50.10;;;;;;5081104;28;20048;-72
2021/09/04 03:46:21;;;;;;;16.00;12.55;;;12.90;50.10;;;;;;5079522;28;20097;-72
2021/09/04 03:48:49;;;;;;;19.40;13.13;;;12.80;50.50;;;;;;5078256;28;20036;-71
2021/09/04 03:51:17;;;;;;;16.25;12.63;;;12.80;50.50;;;;;;5080494;28;20047;-72
2021/09/04 03:53:46;;;;;;;18.70;12.75;;;12.90;51.30;;;;;;5061733;28;20055;-71
2021/09/04 03:56:14;;;;;;;17.27;12.27;;;12.90;50.20;;;;;;5079807;28;20057;-71
2021/09/04 03:58:42;;;;;;;18.33;13.30;;;12.90;50.10;;;;;;5078062;28;20032;-71
2021/09/04 04:01:10;;;;;;;17.42;12.43;;;12.90;50.10;;;;;;5048651;28;20389;-71
2021/09/04 04:03:39;;;;;;;22.52;13.25;;;12.90;50.30;;;;;;5083125;28;20500;-71
2021/09/04 04:06:08;;;;;;;18.45;14.02;;;12.90;49.70;;;;;;5081213;28;20495;-72
2021/09/04 04:08:36;;;;;;;20.98;13.90;;;12.90;49.30;;;;;;5080824;28;20097;-71
2021/09/04 04:11:08;;;;;;;22.25;14.40;;;12.90;48.40;;;;;;5080183;28;20046;-72
2021/09/04 04:13:36;;;;;;;19.13;13.52;;;12.80;49.10;;;;;;5080884;28;20090;-71
2021/09/04 04:16:05;;;;;;;21.63;13.35;;;12.70;48.90;;;;;;5077247;28;20451;-72
2021/09/04 04:18:34;;;;;;;19.48;13.60;;;12.70;49.40;;;;;;5077558;28;20118;-71
2021/09/04 04:21:04;;;;;;;22.00;14.55;;;12.70;49.80;;;;;;5079311;28;20709;-71
2021/09/04 04:23:32;;;;;;;19.80;13.82;;;12.70;50.00;;;;;;5079421;28;20052;-72
2021/09/04 04:26:00;;;;;;;20.85;13.77;;;12.60;49.60;;;;;;5079566;28;20060;-71
2021/09/04 04:28:32;;;;;;;20.55;13.20;;;12.70;49.60;;;;;;5079087;28;20071;-72
2021/09/04 04:31:02;;;;;;;17.70;13.73;;;12.70;48.40;;;;;;5081981;28;20051;-71
2021/09/04 04:33:30;;;;;;;18.88;14.45;;;12.80;47.90;;;;;;5081874;28;20051;-72
2021/09/04 04:35:58;;;;;;;19.23;12.80;;;12.80;47.90;;;;;;5074894;28;20059;-72
2021/09/04 04:38:27;;;;;;;18.75;13.27;;;12.80;47.10;;;;;;5079027;28;20105;-73
2021/09/04 04:40:55;;;;;;;17.88;13.02;;;12.90;46.30;;;;;;5079018;28;20055;-73
2021/09/04 04:43:23;;;;;;;18.85;13.10;;;12.90;45.50;;;;;;5079063;28;20056;-72
2021/09/04 04:45:51;;;;;;;18.42;13.80;;;12.80;45.80;;;;;;5077104;28;20044;-71
2021/09/04 04:48:20;;;;;;;20.25;13.45;;;12.80;46.50;;;;;;5077604;28;20550;-72
2021/09/04 04:50:48;;;;;;;19.45;13.07;;;12.80;46.60;;;;;;5082074;28;20048;-72
2021/09/04 04:53:17;;;;;;;16.90;12.60;;;12.80;45.80;;;;;;5079259;28;20040;-72
2021/09/04 04:55:47;;;;;;;20.00;12.85;;;12.80;45.70;;;;;;5077904;28;20192;-71
2021/09/04 04:58:15;;;;;;;17.25;12.93;;;12.80;46.60;;;;;;5061606;28;20059;-71
2021/09/04 05:00:43;;;;;;;17.67;12.02;;;12.70;45.50;;;;;;5058414;28;20461;-72
2021/09/04 05:03:11;;;;;;;17.00;12.23;;;12.80;46.20;;;;;;5078319;28;20079;-71
2021/09/04 05:05:39;;;;;;;16.90;12.18;;;13.40;40.10;;;;;;5078009;28;20048;-71
2021/09/04 05:08:09;;;;;;;14.70;10.75;;;13.90;31.20;;;;;;5075736;28;20060;-72
2021/09/04 05:10:38;;;;;;;14.18;10.13;;;14.10;27.20;;;;;;5075420;28;20090;-72
2021/09/04 05:13:07;;;;;;;10.23;9.15;;;14.20;22.90;;;;;;5062131;28;20473;-72
2021/09/04 05:15:35;;;;;;;12.32;9.57;;;14.90;20.70;;;;;;5079833;28;20101;-71
2021/09/04 05:18:03;;;;;;;14.35;9.63;;;15.20;15.80;;;;;;5074997;28;20044;-72
2021/09/04 05:20:31;;;;;;;10.07;8.48;;;15.30;13.40;;;;;;5064389;28;20056;-71
2021/09/04 05:22:59;;;;;;;12.02;8.30;;;15.50;11.50;;;;;;5054468;28;20056;-72
2021/09/04 05:25:27;;;;;;;9.98;7.57;;;15.70;9.30;;;;;;5079343;28;20063;-71
2021/09/04 05:27:55;;;;;;;13.45;8.50;;;15.80;8.60;;;;;;5075425;28;20075;-71
2021/09/04 05:30:25;;;;;;;11.73;8.65;;;16.10;7.00;;;;;;5077643;28;20044;-71
2021/09/04 05:32:53;;;;;;;13.57;8.02;;;15.20;12.70;;;;;;5081181;28;20044;-71
2021/09/04 05:35:21;;;;;;;12.40;8.27;;;14.10;20.20;;;;;;5079043;28;20078;-72
2021/09/04 05:37:49;;;;;;;10.98;7.55;;;13.90;22.10;;;;;;5072772;28;20049;-72
2021/09/04 05:40:17;;;;;;;13.77;7.72;;;13.60;25.00;;;;;;5075409;28;20542;-72
2021/09/04 05:42:45;;;;;;;9.77;8.32;;;13.50;29.10;;;;;;5076252;28;20049;-72
2021/09/04 05:45:13;;;;;;;10.13;7.32;;;13.60;27.90;;;;;;5079495;28;20057;-72
2021/09/04 05:47:43;;;;;;;9.73;7.60;;;13.70;27.90;;;;;;5074674;28;20519;-72
2021/09/04 05:50:12;;;;;;;13.10;7.93;;;13.70;27.10;;;;;;5078530;28;20089;-72
2021/09/04 05:52:40;;;;;;;9.13;7.30;;;13.70;27.50;;;;;;5078784;28;20640;-72
2021/09/04 05:55:10;;;;;;;14.63;8.07;;;13.80;27.30;;;;;;5079738;28;20044;-71
2021/09/04 05:57:38;;;;;;;12.00;8.82;;;13.80;26.70;;;;;;5068419;28;20048;-72
2021/09/04 06:00:07;;;;;;;13.82;8.88;;;13.80;26.20;;;;;;5081613;28;20570;-72
2021/09/04 06:02:35;;;;;;;11.25;8.48;;;13.90;25.60;;;;;;5081931;28;20059;-71
2021/09/04 06:05:06;;;;;;;15.80;9.00;;;13.90;26.30;;;;;;5077027;28;20131;-72
2021/09/04 06:07:35;;;;;;;12.52;8.95;;;13.90;25.60;;;;;;5077567;28;20058;-72
2021/09/04 06:10:06;;;;;;;11.32;8.93;;;14.10;25.20;;;;;;5079654;28;20032;-71
2021/09/04 06:12:34;;;;;;;13.77;8.55;;;14.20;23.60;;;;;;5064353;28;20050;-71
2021/09/04 06:15:02;;;;;;;15.48;8.68;;;14.20;24.20;;;;;;5066011;28;20079;-72
2021/09/04 06:17:30;;;;;;;12.07;8.40;;;14.30;23.80;;;;;;5072217;28;20676;-71
2021/09/04 06:19:58;;;;;;;10.15;7.78;;;14.50;22.30;;;;;;5079128;28;20050;-71
2021/09/04 06:22:28;;;;;;;13.20;8.15;;;14.60;21.70;;;;;;5084159;28;20169;-72
2021/09/04 06:24:56;;;;;;;13.25;7.93;;;14.60;20.60;;;;;;5079064;28;20055;-71
2021/09/04 06:27:24;;;;;;;9.63;7.55;;;14.70;20.70;;;;;;5078515;28;20050;-72
2021/09/04 06:29:52;;;;;;;10.77;7.40;;;14.80;19.50;;;;;;5081547;28;20048;-71
2021/09/04 06:32:20;;;;;;;11.55;7.55;;;14.90;18.40;;;;;;5085180;28;20040;-71
2021/09/04 06:34:47;;;;;;;12.27;7.93;;;14.80;18.20;;;;;;5084764;28;20449;-71
2021/09/04 06:37:24;;;;;;;12.18;7.63;;;15.00;17.50;;;;;;5075266;28;20514;-72
2021/09/04 06:39:53;;;;;;;10.80;7.78;;;15.00;16.60;;;;;;5082917;28;20091;-72
2021/09/04 06:42:21;;;;;;;10.40;8.02;;;15.30;16.00;;;;;;5082299;28;20048;-73
2021/09/04 06:44:49;;;;;;;12.45;7.78;;;15.20;16.20;;;;;;5080509;28;20047;-71
2021/09/04 06:47:17;;;;;;;9.57;7.68;;;15.40;15.80;;;;;;5077554;28;20475;-72
2021/09/04 06:49:45;;;;;;;10.38;7.60;;;15.40;15.10;;;;;;5081464;28;20068;-71
2021/09/04 06:52:13;;;;;;;8.95;7.65;;;15.60;15.30;;;;;;5082415;28;20040;-71
2021/09/04 06:54:41;;;;;;;10.38;7.95;;;15.40;15.40;;;;;;5082923;28;20056;-72
2021/09/04 06:57:20;;;;;;;10.95;8.40;;;15.50;15.20;;;;;;5076526;28;20043;-71
2021/09/04 06:59:48;;;;;;;13.32;8.75;;;15.50;14.80;;;;;;5080222;28;20106;-71
2021/09/04 07:02:16;;;;;;;11.48;8.18;;;15.60;15.30;;;;;;5082733;28;20100;-72
2021/09/04 07:04:44;;;;;;;11.65;9.15;;;15.90;15.00;;;;;;5078694;28;20117;-72
2021/09/04 07:07:12;;;;;;;14.77;9.43;;;15.80;15.40;;;;;;5074467;28;20491;-71
2021/09/04 07:09:40;;;;;;;12.13;8.82;;;15.80;15.40;;;;;;5083994;28;20048;-71
2021/09/04 07:12:08;;;;;;;13.27;9.85;;;16.00;15.30;;;;;;5077129;28;20101;-71
2021/09/04 07:14:37;;;;;;;12.80;9.02;;;16.00;15.10;;;;;;5085504;28;20071;-70
2021/09/04 07:17:05;;;;;;;12.93;9.50;;;16.30;15.10;;;;;;5073238;28;20129;-72
2021/09/04 07:19:33;;;;;;;15.25;9.48;;;16.30;14.60;;;;;;5082128;28;20056;-71
2021/09/04 07:22:01;;;;;;;12.45;9.57;;;16.60;13.70;;;;;;5078452;28;20072;-71
2021/09/04 07:24:30;;;;;;;11.80;9.82;;;16.60;14.00;;;;;;5078175;28;20056;-71
2021/09/04 07:26:57;;;;;;;11.13;9.00;;;16.70;13.30;;;;;;5072081;28;20102;-71
2021/09/04 07:29:26;;;;;;;14.00;9.57;;;17.00;12.60;;;;;;5080329;28;20543;-71
2021/09/04 07:31:55;;;;;;;14.85;9.65;;;17.10;12.60;;;;;;5082951;28;20074;-70
2021/09/04 07:34:23;;;;;;;11.23;8.32;;;17.20;11.10;;;;;;5080341;28;20075;-71
2021/09/04 07:36:51;;;;;;;11.45;8.73;;;17.40;10.90;;;;;;5070538;28;20063;-71
2021/09/04 07:39:20;;;;;;;16.17;9.40;;;17.60;10.50;;;;;;5080883;28;20129;-71
2021/09/04 07:41:47;;;;;;;11.20;8.98;;;17.50;10.00;;;;;;5082176;28;20091;-72
2021/09/04 07:44:16;;;;;;;13.65;9.63;;;17.60;9.20;;;;;;5075988;28;20053;-71
2021/09/04 07:46:43;;;;;;;13.98;8.77;;;17.70;8.70;;;;;;5070295;28;20056;-71
2021/09/04 07:49:24;;;;;;;11.90;8.75;;;17.80;8.50;;;;;;5084661;28;20239;-71
2021/09/04 07:51:52;;;;;;;13.82;9.32;;;18.00;7.30;;;;;;5077856;28;20059;-71
2021/09/04 07:54:20;;;;;;;13.70;8.48;;;18.10;6.30;;;;;;5078388;28;20097;-71
2021/09/04 07:56:48;;;;;;;11.52;8.70;;;18.20;5.90;;;;;;5077495;28;20523;-72
2021/09/04 07:59:16;;;;;;;14.35;9.13;;;18.40;5.70;;;;;;5081499;28;20048;-72
2021/09/04 08:01:44;;;;;;;13.40;9.18;;;18.60;5.40;;;;;;5079864;28;20044;-72
2021/09/04 08:04:13;;;;;;;10.13;7.70;;;18.70;4.60;;;;;;5078876;28;20503;-72
2021/09/04 08:06:43;;;;;;;10.32;8.25;;;18.90;4.20;;;;;;5074206;28;20041;-72
2021/09/04 08:09:11;;;;;;;11.50;7.93;;;19.00;3.30;;;;;;5078981;28;20053;-72
2021/09/04 08:11:39;;;;;;;10.60;8.25;;;19.10;1.60;;;;;;5077762;28;20110;-72
2021/09/04 08:14:07;;;;;;;10.20;8.20;;;19.10;1.60;;;;;;5081509;28;20040;-72
2021/09/04 08:16:36;;;;;;;13.20;8.93;;;19.20;1.30;;;;;;5076828;28;20055;-71
2021/09/04 08:19:05;;;;;;;12.18;7.97;;;19.10;1.40;;;;;;5078314;28;20114;-71
2021/09/04 08:21:33;;;;;;;12.90;8.13;;;19.40;1.40;;;;;;5076877;28;20044;-70
2021/09/04 08:24:02;;;;;;;10.60;8.52;;;19.30;1.00;;;;;;5076794;28;20066;-71
2021/09/04 08:26:31;;;;;;;11.98;8.23;;;19.50;1.00;;;;;;5074023;28;20044;-71
2021/09/04 08:28:59;;;;;;;12.15;7.85;;;19.70;1.00;;;;;;5075341;28;20047;-71
2021/09/04 08:31:31;;;;;;;8.75;7.85;;;19.70;1.00;;;;;;5078569;28;20572;-72
2021/09/04 08:33:59;;;;;;;9.65;7.13;;;19.70;1.00;;;;;;5080976;28;20048;-72
2021/09/04 08:36:27;;;;;;;9.63;7.93;;;20.00;1.00;;;;;;5077717;28;20060;-72
2021/09/04 08:38:55;;;;;;;11.13;7.40;;;20.10;1.00;;;;;;5080397;28;20044;-72
2021/09/04 08:41:25;;;;;;;11.02;7.93;;;20.00;1.00;;;;;;5082074;28;20043;-72
2021/09/04 08:43:53;;;;;;;12.90;7.57;;;19.90;1.00;;;;;;5079678;28;20055;-72
2021/09/04 08:46:21;;;;;;;10.02;7.95;;;20.10;1.00;;;;;;5075375;28;20040;-72
2021/09/04 08:48:52;;;;;;;13.57;7.88;;;20.30;1.00;;;;;;5073251;28;20083;-72
2021/09/04 08:51:20;;;;;;;8.60;6.93;;;20.10;1.00;;;;;;5058662;28;20047;-72
2021/09/04 08:53:48;;;;;;;10.30;6.82;;;20.40;1.00;;;;;;5077602;28;20074;-72
2021/09/04 08:56:16;;;;;;;11.10;7.57;;;20.60;1.00;;;;;;5077472;28;20059;-72
2021/09/04 08:58:45;;;;;;;8.77;7.38;;;20.60;1.00;;;;;;5077656;28;20081;-73
2021/09/04 09:01:17;;;;;;;9.48;6.85;;;20.50;1.00;;;;;;5082432;28;20101;-71
2021/09/04 09:03:46;;;;;;;9.32;6.75;;;20.90;1.00;;;;;;5082321;28;20048;-71
2021/09/04 09:06:33;;;;;;;9.73;6.80;;;21.00;1.00;;;;;;5071716;28;20044;-72
2021/09/04 09:09:15;;;;;;;10.20;7.30;;;21.20;1.00;;;;;;5078646;28;20051;-72
2021/09/04 09:11:45;;;;;;;7.78;6.40;;;21.20;1.00;;;;;;5080255;28;20538;-71
2021/09/04 09:14:14;;;;;;;11.77;6.10;;;21.30;1.00;;;;;;5081467;28;20056;-72
2021/09/04 09:16:51;;;;;;;9.02;6.43;;;21.50;1.00;;;;;;5073147;28;20137;-72
2021/09/04 09:19:25;;;;;;;8.93;6.32;;;21.30;1.00;;;;;;5077481;28;20059;-72
2021/09/04 09:21:56;;;;;;;7.15;6.10;;;21.70;1.00;;;;;;5079109;28;20093;-72
2021/09/04 09:24:26;;;;;;;10.70;6.65;;;22.00;1.00;;;;;;5079649;28;20130;-72
2021/09/04 09:26:57;;;;;;;10.90;6.13;;;22.10;1.00;;;;;;5072713;28;20120;-72
2021/09/04 09:29:31;;;;;;;6.78;6.03;;;22.10;1.00;;;;;;5080504;28;20059;-73
2021/09/04 09:32:02;;;;;;;7.65;5.03;;;21.90;1.00;;;;;;5062237;28;20055;-73
2021/09/04 09:34:31;;;;;;;10.73;5.75;;;21.60;1.00;;;;;;5079579;28;20075;-72
2021/09/04 09:37:01;;;;;;;8.38;6.22;;;21.80;1.00;;;;;;5076065;28;20102;-72
2021/09/04 09:39:32;;;;;;;7.65;5.72;;;21.90;1.00;;;;;;5082119;28;20051;-73
2021/09/04 09:42:02;;;;;;;7.68;5.20;;;22.00;1.00;;;;;;5060814;28;20122;-70
2021/09/04 09:44:33;;;;;;;7.80;5.60;;;22.00;1.00;;;;;;5082767;28;20044;-71
2021/09/04 09:47:03;;;;;;;6.38;5.65;;;22.00;1.00;;;;;;5078054;28;20553;-71
2021/09/04 09:49:33;;;;;;;7.53;5.53;;;22.20;1.00;;;;;;5083247;28;20056;-70
2021/09/04 09:52:04;;;;;;;6.78;5.63;;;22.30;1.00;;;;;;5082072;28;20052;-71
2021/09/04 09:54:33;;;;;;;7.30;6.13;;;22.50;1.00;;;;;;5080475;28;20048;-71
2021/09/04 09:57:04;;;;;;;8.90;6.43;;;22.40;1.00;;;;;;5079565;28;20048;-72
2021/09/04 09:59:34;;;;;;;7.97;5.13;;;22.50;1.00;;;;;;5080741;28;20063;-71
2021/09/04 10:02:06;;;;;;;5.45;4.65;;;22.60;1.00;;;;;;5078748;28;20067;-71
2021/09/04 10:04:37;;;;;;;7.05;5.30;;;22.50;1.00;;;;;;5085948;28;20055;-71
2021/09/04 10:07:07;;;;;;;8.43;5.68;;;22.60;1.00;;;;;;5077331;28;20111;-72
2021/09/04 10:09:38;;;;;;;6.57;4.90;;;22.80;1.00;;;;;;5079356;28;20055;-71
2021/09/04 10:12:07;;;;;;;5.57;4.32;;;23.20;1.00;;;;;;5085648;28;20127;-72
2021/09/04 10:14:38;;;;;;;4.85;4.35;;;23.30;1.00;;;;;;5080214;28;20055;-72
2021/09/04 10:17:07;;;;;;;6.80;4.47;;;23.30;1.00;;;;;;5076113;28;20047;-72
2021/09/04 10:19:36;;;;;;;10.93;4.93;;;23.50;1.00;;;;;;5080228;28;20561;-71
2021/09/04 10:22:06;;;;;;;7.80;5.55;;;23.30;1.00;;;;;;5083658;28;20043;-72
2021/09/04 10:24:51;;;;;;;7.55;5.32;;;23.30;1.00;;;;;;5082194;28;20048;-72
2021/09/04 10:27:39;;;;;;;5.35;3.97;;;23.10;1.00;;;;;;5077321;28;20553;-71
2021/09/04 10:30:30;;;;;;;6.53;4.93;;;23.00;1.00;;;;;;5083680;28;20052;-72
2021/09/04 10:33:04;;;;;;;9.98;5.50;;;22.80;1.00;;;;;;5081434;28;20052;-71
2021/09/04 10:35:47;;;;;;;9.52;5.00;;;22.90;1.00;;;;;;5065653;28;20052;-71
2021/09/04 10:38:35;;;;;;;6.53;4.10;;;23.00;1.00;;;;;;5070748;28;20105;-71
2021/09/04 10:41:23;;;;;;;5.28;3.63;;;23.40;1.00;;;;;;5077848;28;20041;-72
2021/09/04 10:43:55;;;;;;;4.23;3.80;;;23.60;1.00;;;;;;5063810;28;20044;-72
2021/09/04 10:46:26;;;;;;;6.25;4.13;;;23.80;1.00;;;;;;5084517;28;20044;-71
2021/09/04 10:49:03;;;;;;;4.97;4.28;;;23.10;1.00;;;;;;5075376;28;20048;-71
2021/09/04 10:51:49;;;;;;;4.57;3.83;;;23.40;1.00;;;;;;5079610;28;20051;-71
2021/09/04 10:54:40;;;;;;;6.75;4.63;;;23.70;1.00;;;;;;5080194;28;20072;-72
2021/09/04 10:57:16;;;;;;;4.47;3.70;;;23.50;1.00;;;;;;5078876;28;20508;-71
2021/09/04 11:00:01;;;;;;;4.60;3.42;;;23.80;1.00;;;;;;5081132;28;20154;-72
2021/09/04 11:02:42;;;;;;;5.18;3.88;;;23.70;1.00;;;;;;5080991;28;20047;-72
2021/09/04 11:05:45;;;;;;;4.55;3.47;;;24.00;1.00;;;;;;5082635;28;20055;-70
2021/09/04 11:08:34;;;;;;;5.38;4.20;;;24.30;1.00;;;;;;4973544;28;20109;-72
2021/09/04 11:11:28;;;;;;;6.13;4.55;;;24.10;1.00;;;;;;5077258;28;20143;-72
2021/09/04 11:13:58;;;;;;;4.75;3.97;;;23.80;1.00;;;;;;5080158;28;20376;-71
2021/09/04 11:16:34;;;;;;;4.72;3.90;;;23.90;1.00;;;;;;5075656;28;20063;-71
2021/09/04 11:19:07;;;;;;;9.07;5.18;;;24.20;1.00;;;;;;5075098;28;20071;-71
2021/09/04 11:21:54;;;;;;;7.88;4.50;;;23.80;1.00;;;;;;5080410;28;20062;-71
2021/09/04 11:24:25;;;;;;;8.23;4.90;;;23.70;1.00;;;;;;5077495;28;20412;-72
2021/09/04 11:26:58;;;;;;;9.70;6.78;;;23.90;1.00;;;;;;5052328;28;20205;-72
2021/09/04 11:29:26;;;;;;;5.43;4.45;;;24.20;1.00;;;;;;5061986;28;20059;-71
2021/09/04 11:32:00;;;;;;;6.70;4.60;;;23.90;1.00;;;;;;5070957;28;20515;-72
2021/09/04 11:34:54;;;;;;;5.00;4.32;;;24.20;1.00;;;;;;5081887;28;20067;-71
2021/09/04 11:37:29;;;;;;;5.93;4.55;;;24.50;1.00;;;;;;5042123;28;20048;-72
2021/09/04 11:40:00;;;;;;;6.25;4.22;;;24.70;1.00;;;;;;5082676;28;20139;-72
2021/09/04 11:42:30;;;;;;;6.85;5.15;;;24.70;1.00;;;;;;5076357;28;20568;-72
2021/09/04 11:45:00;;;;;;;5.03;4.50;;;24.40;1.00;;;;;;5080248;28;20051;-72
2021/09/04 11:47:29;;;;;;;10.70;4.30;;;24.40;1.00;;;;;;5062365;28;20060;-72
2021/09/04 11:49:59;;;;;;;5.35;4.53;;;24.50;1.00;;;;;;5061136;28;20416;-70
2021/09/04 11:52:31;;;;;;;6.32;4.40;;;24.50;1.00;;;;;;5081767;28;20568;-71
2021/09/04 11:55:14;;;;;;;6.45;4.78;;;24.10;1.00;;;;;;5080216;28;20561;-71
2021/09/04 11:57:44;;;;;;;7.65;4.43;;;24.10;1.00;;;;;;5073417;28;20133;-70
2021/09/04 12:00:15;;;;;;;5.53;4.68;;;24.30;1.00;;;;;;5063058;28;20084;-72
2021/09/04 12:02:46;;;;;;;5.80;3.75;;;24.30;1.00;;;;;;5078639;28;20040;-72
2021/09/04 12:05:26;;;;;;;5.45;4.40;;;24.20;1.00;;;;;;5078548;28;20051;-72
2021/09/04 12:07:56;;;;;;;5.93;4.95;;;24.40;1.00;;;;;;5077198;28;20048;-72
2021/09/04 12:10:26;;;;;;;6.53;4.30;;;24.30;1.00;;;;;;5083484;28;20625;-71
2021/09/04 12:12:56;;;;;;;5.15;4.07;;;24.20;1.00;;;;;;5079167;28;20568;-71
2021/09/04 12:15:26;;;;;;;6.63;4.30;;;24.30;1.00;;;;;;5081511;28;20054;-71
2021/09/04 12:17:56;;;;;;;6.13;4.25;;;24.50;1.00;;;;;;5073704;28;20142;-70
2021/09/04 12:20:31;;;;;;;4.80;3.60;;;24.60;1.00;;;;;;5056791;28;20036;-71
2021/09/04 12:23:11;;;;;;;6.47;4.05;;;24.90;1.00;;;;;;5063951;28;20071;-71
2021/09/04 12:25:40;;;;;;;6.00;3.70;;;25.10;1.00;;;;;;5076081;28;20484;-71
2021/09/04 12:28:09;;;;;;;4.50;3.60;;;25.20;1.00;;;;;;5057482;28;20044;-71
2021/09/04 12:30:57;;;;;;;4.43;3.72;;;25.40;1.00;;;;;;5057487;28;20120;-72
2021/09/04 12:33:26;;;;;;;5.03;3.95;;;25.00;1.00;;;;;;5056816;28;20053;-72
2021/09/04 12:35:57;;;;;;;3.92;3.35;;;25.00;1.00;;;;;;5063350;28;20461;-70
2021/09/04 12:38:30;;;;;;;4.47;3.55;;;25.30;1.00;;;;;;5053057;28;20098;-73
2021/09/04 12:41:13;;;;;;;4.25;3.78;;;25.10;1.00;;;;;;5064197;28;20090;-72
2021/09/04 12:43:51;;;;;;;4.53;4.05;;;25.20;1.00;;;;;;5042148;28;20054;-71
2021/09/04 12:46:34;;;;;;;5.40;3.80;;;25.00;1.00;;;;;;5061064;28;20040;-72
2021/09/04 12:49:24;;;;;;;8.02;4.25;;;24.80;1.00;;;;;;5056979;28;20056;-71
2021/09/04 12:52:10;;;;;;;7.00;4.18;;;24.10;1.00;;;;;;5057907;28;20067;-72
2021/09/04 12:54:43;;;;;;;4.75;3.90;;;24.60;1.00;;;;;;5066344;28;20040;-71
2021/09/04 12:57:24;;;;;;;4.93;3.78;;;24.60;1.00;;;;;;5071564;28;20489;-73